sensor_id;sensor_type;location;lat;lon;timestamp;P1;durP1;ratioP1;P2;durP2;ratioP2
40945;SDS011;55635;50.264;11.918;2024-01-30T00:02:20;19.15;;;9.95;;
40945;SDS011;55635;50.264;11.918;2024-01-30T00:05:01;17.33;;;9.30;;
40945;SDS011;55635;50.264;11.918;2024-01-30T00:07:43;14.80;;;8.95;;
40945;SDS011;55635;50.264;11.918;2024-01-30T00:10:25;16.67;;;9.38;;
40945;SDS011;55635;50.264;11.918;2024-01-30T00:13:05;18.30;;;8.95;;
40945;SDS011;55635;50.264;11.918;2024-01-30T00:15:47;20.42;;;9.90;;
40945;SDS011;55635;50.264;11.918;2024-01-30T00:18:28;18.85;;;8.85;;
40945;SDS011;55635;50.264;11.918;2024-01-30T00:21:09;15.90;;;8.32;;
40945;SDS011;55635;50.264;11.918;2024-01-30T00:23:51;16.48;;;8.63;;
40945;SDS011;55635;50.264;11.918;2024-01-30T00:26:31;15.32;;;8.45;;
40945;SDS011;55635;50.264;11.918;2024-01-30T00:29:13;19.25;;;9.07;;
40945;SDS011;55635;50.264;11.918;2024-01-30T00:31:59;15.80;;;9.45;;
40945;SDS011;55635;50.264;11.918;2024-01-30T00:34:41;19.88;;;9.32;;
40945;SDS011;55635;50.264;11.918;2024-01-30T00:37:22;15.93;;;8.63;;
40945;SDS011;55635;50.264;11.918;2024-01-30T00:40:03;14.05;;;9.15;;
40945;SDS011;55635;50.264;11.918;2024-01-30T00:42:46;22.33;;;9.77;;
40945;SDS011;55635;50.264;11.918;2024-01-30T00:45:27;22.83;;;10.00;;
40945;SDS011;55635;50.264;11.918;2024-01-30T00:48:08;20.70;;;9.93;;
40945;SDS011;55635;50.264;11.918;2024-01-30T00:50:49;19.58;;;9.52;;
40945;SDS011;55635;50.264;11.918;2024-01-30T00:53:31;17.33;;;9.85;;
40945;SDS011;55635;50.264;11.918;2024-01-30T00:56:12;19.83;;;9.80;;
40945;SDS011;55635;50.264;11.918;2024-01-30T00:58:53;18.25;;;9.20;;
40945;SDS011;55635;50.264;11.918;2024-01-30T01:01:35;15.00;;;8.45;;
40945;SDS011;55635;50.264;11.918;2024-01-30T01:04:16;22.58;;;8.68;;
40945;SDS011;55635;50.264;11.918;2024-01-30T01:06:58;19.95;;;9.70;;
40945;SDS011;55635;50.264;11.918;2024-01-30T01:09:39;17.08;;;9.80;;
40945;SDS011;55635;50.264;11.918;2024-01-30T01:12:20;15.48;;;8.23;;
40945;SDS011;55635;50.264;11.918;2024-01-30T01:15:01;19.02;;;9.55;;
40945;SDS011;55635;50.264;11.918;2024-01-30T01:17:43;17.60;;;9.05;;
40945;SDS011;55635;50.264;11.918;2024-01-30T01:20:24;19.15;;;9.85;;
40945;SDS011;55635;50.264;11.918;2024-01-30T01:23:05;19.65;;;9.68;;
40945;SDS011;55635;50.264;11.918;2024-01-30T01:25:46;15.45;;;8.57;;
40945;SDS011;55635;50.264;11.918;2024-01-30T01:28:27;17.10;;;9.82;;
40945;SDS011;55635;50.264;11.918;2024-01-30T01:31:08;15.45;;;8.48;;
40945;SDS011;55635;50.264;11.918;2024-01-30T01:33:49;18.40;;;9.35;;
40945;SDS011;55635;50.264;11.918;2024-01-30T01:36:30;19.33;;;9.52;;
40945;SDS011;55635;50.264;11.918;2024-01-30T01:39:11;16.30;;;9.02;;
40945;SDS011;55635;50.264;11.918;2024-01-30T01:41:52;19.35;;;9.60;;
40945;SDS011;55635;50.264;11.918;2024-01-30T01:44:33;16.77;;;9.18;;
40945;SDS011;55635;50.264;11.918;2024-01-30T01:47:15;17.60;;;9.02;;
40945;SDS011;55635;50.264;11.918;2024-01-30T01:49:56;19.27;;;9.07;;
40945;SDS011;55635;50.264;11.918;2024-01-30T01:52:38;19.02;;;9.38;;
40945;SDS011;55635;50.264;11.918;2024-01-30T01:55:21;17.02;;;9.05;;
40945;SDS011;55635;50.264;11.918;2024-01-30T01:58:04;16.95;;;9.20;;
40945;SDS011;55635;50.264;11.918;2024-01-30T02:00:46;18.38;;;9.77;;
40945;SDS011;55635;50.264;11.918;2024-01-30T02:03:27;18.35;;;8.43;;
40945;SDS011;55635;50.264;11.918;2024-01-30T02:06:09;15.40;;;8.30;;
40945;SDS011;55635;50.264;11.918;2024-01-30T02:08:50;17.45;;;9.88;;
40945;SDS011;55635;50.264;11.918;2024-01-30T02:11:31;16.52;;;9.57;;
40945;SDS011;55635;50.264;11.918;2024-01-30T02:14:13;17.00;;;9.40;;
40945;SDS011;55635;50.264;11.918;2024-01-30T02:16:54;17.77;;;9.98;;
40945;SDS011;55635;50.264;11.918;2024-01-30T02:19:35;20.38;;;10.45;;
40945;SDS011;55635;50.264;11.918;2024-01-30T02:22:17;20.23;;;9.98;;
40945;SDS011;55635;50.264;11.918;2024-01-30T02:25:00;20.98;;;9.75;;
40945;SDS011;55635;50.264;11.918;2024-01-30T02:27:41;18.10;;;9.98;;
40945;SDS011;55635;50.264;11.918;2024-01-30T02:30:22;17.58;;;9.57;;
40945;SDS011;55635;50.264;11.918;2024-01-30T02:33:04;23.92;;;10.90;;
40945;SDS011;55635;50.264;11.918;2024-01-30T02:35:45;20.75;;;10.55;;
40945;SDS011;55635;50.264;11.918;2024-01-30T02:38:26;22.75;;;11.38;;
40945;SDS011;55635;50.264;11.918;2024-01-30T02:41:07;19.10;;;10.25;;
40945;SDS011;55635;50.264;11.918;2024-01-30T02:43:48;20.17;;;10.52;;
40945;SDS011;55635;50.264;11.918;2024-01-30T02:46:30;20.85;;;10.75;;
40945;SDS011;55635;50.264;11.918;2024-01-30T02:49:11;19.02;;;10.30;;
40945;SDS011;55635;50.264;11.918;2024-01-30T02:51:53;19.65;;;10.05;;
40945;SDS011;55635;50.264;11.918;2024-01-30T02:54:34;21.33;;;10.55;;
40945;SDS011;55635;50.264;11.918;2024-01-30T02:57:15;21.98;;;10.95;;
40945;SDS011;55635;50.264;11.918;2024-01-30T02:59:56;20.63;;;10.77;;
40945;SDS011;55635;50.264;11.918;2024-01-30T03:02:37;23.35;;;10.50;;
40945;SDS011;55635;50.264;11.918;2024-01-30T03:05:19;20.23;;;10.75;;
40945;SDS011;55635;50.264;11.918;2024-01-30T03:08:01;20.42;;;11.48;;
40945;SDS011;55635;50.264;11.918;2024-01-30T03:10:44;21.02;;;11.55;;
40945;SDS011;55635;50.264;11.918;2024-01-30T03:13:25;21.90;;;11.13;;
40945;SDS011;55635;50.264;11.918;2024-01-30T03:16:06;20.45;;;11.50;;
40945;SDS011;55635;50.264;11.918;2024-01-30T03:18:48;20.90;;;10.52;;
40945;SDS011;55635;50.264;11.918;2024-01-30T03:21:29;20.30;;;10.07;;
40945;SDS011;55635;50.264;11.918;2024-01-30T03:24:11;21.95;;;10.52;;
40945;SDS011;55635;50.264;11.918;2024-01-30T03:26:51;20.80;;;10.70;;
40945;SDS011;55635;50.264;11.918;2024-01-30T03:29:33;20.90;;;10.85;;
40945;SDS011;55635;50.264;11.918;2024-01-30T03:32:15;22.33;;;10.75;;
40945;SDS011;55635;50.264;11.918;2024-01-30T03:34:56;16.52;;;9.65;;
40945;SDS011;55635;50.264;11.918;2024-01-30T03:37:38;20.00;;;10.10;;
40945;SDS011;55635;50.264;11.918;2024-01-30T03:40:19;17.67;;;10.05;;
40945;SDS011;55635;50.264;11.918;2024-01-30T03:43:00;24.25;;;10.77;;
40945;SDS011;55635;50.264;11.918;2024-01-30T03:45:42;19.60;;;10.32;;
40945;SDS011;55635;50.264;11.918;2024-01-30T03:48:23;17.73;;;10.25;;
40945;SDS011;55635;50.264;11.918;2024-01-30T03:51:05;21.77;;;10.98;;
40945;SDS011;55635;50.264;11.918;2024-01-30T03:53:47;20.77;;;10.20;;
40945;SDS011;55635;50.264;11.918;2024-01-30T03:56:28;20.02;;;10.50;;
40945;SDS011;55635;50.264;11.918;2024-01-30T03:59:09;19.15;;;10.73;;
40945;SDS011;55635;50.264;11.918;2024-01-30T04:01:50;18.23;;;10.05;;
40945;SDS011;55635;50.264;11.918;2024-01-30T04:04:32;18.88;;;9.95;;
40945;SDS011;55635;50.264;11.918;2024-01-30T04:07:12;20.15;;;10.55;;
40945;SDS011;55635;50.264;11.918;2024-01-30T04:09:53;20.15;;;9.55;;
40945;SDS011;55635;50.264;11.918;2024-01-30T04:12:34;19.52;;;10.15;;
40945;SDS011;55635;50.264;11.918;2024-01-30T04:15:16;18.90;;;11.15;;
40945;SDS011;55635;50.264;11.918;2024-01-30T04:17:57;20.13;;;10.80;;
40945;SDS011;55635;50.264;11.918;2024-01-30T04:20:39;19.23;;;9.75;;
40945;SDS011;55635;50.264;11.918;2024-01-30T04:23:21;20.08;;;10.75;;
40945;SDS011;55635;50.264;11.918;2024-01-30T04:26:02;18.90;;;11.02;;
40945;SDS011;55635;50.264;11.918;2024-01-30T04:28:46;20.50;;;10.55;;
40945;SDS011;55635;50.264;11.918;2024-01-30T04:31:27;18.73;;;10.20;;
40945;SDS011;55635;50.264;11.918;2024-01-30T04:34:08;20.42;;;11.07;;
40945;SDS011;55635;50.264;11.918;2024-01-30T04:36:49;18.90;;;10.48;;
40945;SDS011;55635;50.264;11.918;2024-01-30T04:39:32;18.90;;;10.15;;
40945;SDS011;55635;50.264;11.918;2024-01-30T04:42:13;19.05;;;11.15;;
40945;SDS011;55635;50.264;11.918;2024-01-30T04:44:54;21.27;;;10.77;;
40945;SDS011;55635;50.264;11.918;2024-01-30T04:47:35;21.92;;;11.18;;
40945;SDS011;55635;50.264;11.918;2024-01-30T04:50:16;22.42;;;10.80;;
40945;SDS011;55635;50.264;11.918;2024-01-30T04:52:57;18.65;;;11.00;;
40945;SDS011;55635;50.264;11.918;2024-01-30T04:55:38;19.73;;;11.23;;
40945;SDS011;55635;50.264;11.918;2024-01-30T04:58:19;17.98;;;10.40;;
40945;SDS011;55635;50.264;11.918;2024-01-30T05:01:01;17.83;;;10.85;;
40945;SDS011;55635;50.264;11.918;2024-01-30T05:03:43;25.27;;;11.00;;
40945;SDS011;55635;50.264;11.918;2024-01-30T05:06:27;25.35;;;11.43;;
40945;SDS011;55635;50.264;11.918;2024-01-30T05:09:08;21.98;;;11.25;;
40945;SDS011;55635;50.264;11.918;2024-01-30T05:11:49;21.60;;;11.75;;
40945;SDS011;55635;50.264;11.918;2024-01-30T05:14:30;20.17;;;10.82;;
40945;SDS011;55635;50.264;11.918;2024-01-30T05:17:12;25.75;;;11.45;;
40945;SDS011;55635;50.264;11.918;2024-01-30T05:19:53;19.08;;;11.55;;
40945;SDS011;55635;50.264;11.918;2024-01-30T05:22:33;21.95;;;11.30;;
40945;SDS011;55635;50.264;11.918;2024-01-30T05:25:15;24.73;;;11.77;;
40945;SDS011;55635;50.264;11.918;2024-01-30T05:27:56;22.30;;;12.25;;
40945;SDS011;55635;50.264;11.918;2024-01-30T05:30:37;17.90;;;11.00;;
40945;SDS011;55635;50.264;11.918;2024-01-30T05:33:18;25.27;;;12.25;;
40945;SDS011;55635;50.264;11.918;2024-01-30T05:36:00;24.75;;;12.23;;
40945;SDS011;55635;50.264;11.918;2024-01-30T05:38:41;25.40;;;12.27;;
40945;SDS011;55635;50.264;11.918;2024-01-30T05:41:22;23.17;;;11.90;;
40945;SDS011;55635;50.264;11.918;2024-01-30T05:44:03;23.23;;;11.23;;
40945;SDS011;55635;50.264;11.918;2024-01-30T05:46:45;20.75;;;11.70;;
40945;SDS011;55635;50.264;11.918;2024-01-30T05:49:26;26.73;;;13.25;;
40945;SDS011;55635;50.264;11.918;2024-01-30T05:52:08;29.67;;;13.68;;
40945;SDS011;55635;50.264;11.918;2024-01-30T05:54:49;24.88;;;13.27;;
40945;SDS011;55635;50.264;11.918;2024-01-30T05:57:31;23.30;;;12.82;;
40945;SDS011;55635;50.264;11.918;2024-01-30T06:00:13;26.88;;;13.05;;
40945;SDS011;55635;50.264;11.918;2024-01-30T06:02:54;22.33;;;12.35;;
40945;SDS011;55635;50.264;11.918;2024-01-30T06:05:35;23.92;;;12.75;;
40945;SDS011;55635;50.264;11.918;2024-01-30T06:08:17;26.30;;;13.18;;
40945;SDS011;55635;50.264;11.918;2024-01-30T06:10:59;22.33;;;12.05;;
40945;SDS011;55635;50.264;11.918;2024-01-30T06:13:40;25.20;;;12.32;;
40945;SDS011;55635;50.264;11.918;2024-01-30T06:16:22;22.63;;;12.68;;
40945;SDS011;55635;50.264;11.918;2024-01-30T06:19:03;23.50;;;12.35;;
40945;SDS011;55635;50.264;11.918;2024-01-30T06:21:44;21.95;;;12.85;;
40945;SDS011;55635;50.264;11.918;2024-01-30T06:24:25;24.30;;;12.40;;
40945;SDS011;55635;50.264;11.918;2024-01-30T06:27:07;20.63;;;12.27;;
40945;SDS011;55635;50.264;11.918;2024-01-30T06:29:49;22.83;;;13.73;;
40945;SDS011;55635;50.264;11.918;2024-01-30T06:32:30;24.52;;;12.57;;
40945;SDS011;55635;50.264;11.918;2024-01-30T06:35:14;30.88;;;13.98;;
40945;SDS011;55635;50.264;11.918;2024-01-30T06:37:57;24.35;;;12.15;;
40945;SDS011;55635;50.264;11.918;2024-01-30T06:40:39;21.75;;;11.82;;
40945;SDS011;55635;50.264;11.918;2024-01-30T06:43:19;26.17;;;13.40;;
40945;SDS011;55635;50.264;11.918;2024-01-30T06:46:02;22.67;;;12.13;;
40945;SDS011;55635;50.264;11.918;2024-01-30T06:48:43;23.38;;;13.02;;
40945;SDS011;55635;50.264;11.918;2024-01-30T06:51:25;25.20;;;12.52;;
40945;SDS011;55635;50.264;11.918;2024-01-30T06:54:06;22.63;;;11.70;;
40945;SDS011;55635;50.264;11.918;2024-01-30T06:56:47;25.23;;;13.23;;
40945;SDS011;55635;50.264;11.918;2024-01-30T06:59:28;27.60;;;13.15;;
40945;SDS011;55635;50.264;11.918;2024-01-30T07:02:10;23.17;;;13.30;;
40945;SDS011;55635;50.264;11.918;2024-01-30T07:04:51;29.45;;;13.60;;
40945;SDS011;55635;50.264;11.918;2024-01-30T07:07:32;24.00;;;13.30;;
40945;SDS011;55635;50.264;11.918;2024-01-30T07:10:13;26.58;;;14.50;;
40945;SDS011;55635;50.264;11.918;2024-01-30T07:12:54;24.33;;;12.85;;
40945;SDS011;55635;50.264;11.918;2024-01-30T07:15:35;22.75;;;13.63;;
40945;SDS011;55635;50.264;11.918;2024-01-30T07:18:19;24.85;;;12.85;;
40945;SDS011;55635;50.264;11.918;2024-01-30T07:21:00;25.60;;;12.45;;
40945;SDS011;55635;50.264;11.918;2024-01-30T07:23:42;22.83;;;12.82;;
40945;SDS011;55635;50.264;11.918;2024-01-30T07:26:23;23.08;;;11.57;;
40945;SDS011;55635;50.264;11.918;2024-01-30T07:29:04;26.90;;;12.27;;
40945;SDS011;55635;50.264;11.918;2024-01-30T07:31:45;25.33;;;12.48;;
40945;SDS011;55635;50.264;11.918;2024-01-30T07:34:27;23.67;;;11.95;;
40945;SDS011;55635;50.264;11.918;2024-01-30T07:37:08;25.63;;;12.02;;
40945;SDS011;55635;50.264;11.918;2024-01-30T07:39:49;24.20;;;12.90;;
40945;SDS011;55635;50.264;11.918;2024-01-30T07:42:31;24.55;;;11.75;;
40945;SDS011;55635;50.264;11.918;2024-01-30T07:45:12;20.98;;;12.35;;
40945;SDS011;55635;50.264;11.918;2024-01-30T07:47:53;19.38;;;10.93;;
40945;SDS011;55635;50.264;11.918;2024-01-30T07:50:35;20.45;;;11.45;;
40945;SDS011;55635;50.264;11.918;2024-01-30T07:53:16;25.10;;;12.85;;
40945;SDS011;55635;50.264;11.918;2024-01-30T07:55:57;19.27;;;10.93;;
40945;SDS011;55635;50.264;11.918;2024-01-30T07:58:38;23.50;;;10.82;;
40945;SDS011;55635;50.264;11.918;2024-01-30T08:01:19;22.38;;;11.75;;
40945;SDS011;55635;50.264;11.918;2024-01-30T08:04:00;25.27;;;12.43;;
40945;SDS011;55635;50.264;11.918;2024-01-30T08:06:41;26.90;;;11.93;;
40945;SDS011;55635;50.264;11.918;2024-01-30T08:09:22;19.83;;;12.07;;
40945;SDS011;55635;50.264;11.918;2024-01-30T08:12:03;22.45;;;11.95;;
40945;SDS011;55635;50.264;11.918;2024-01-30T08:14:45;25.98;;;12.45;;
40945;SDS011;55635;50.264;11.918;2024-01-30T08:17:25;19.98;;;11.27;;
40945;SDS011;55635;50.264;11.918;2024-01-30T08:20:07;23.88;;;12.75;;
40945;SDS011;55635;50.264;11.918;2024-01-30T08:22:50;18.08;;;10.90;;
40945;SDS011;55635;50.264;11.918;2024-01-30T08:25:32;22.77;;;11.43;;
40945;SDS011;55635;50.264;11.918;2024-01-30T08:28:13;24.77;;;11.48;;
40945;SDS011;55635;50.264;11.918;2024-01-30T08:30:54;19.10;;;12.25;;
40945;SDS011;55635;50.264;11.918;2024-01-30T08:33:35;21.50;;;12.05;;
40945;SDS011;55635;50.264;11.918;2024-01-30T08:36:16;18.40;;;10.80;;
40945;SDS011;55635;50.264;11.918;2024-01-30T08:38:58;19.90;;;11.98;;
40945;SDS011;55635;50.264;11.918;2024-01-30T08:41:39;19.75;;;11.90;;
40945;SDS011;55635;50.264;11.918;2024-01-30T08:44:20;22.08;;;12.02;;
40945;SDS011;55635;50.264;11.918;2024-01-30T08:47:01;19.15;;;11.38;;
40945;SDS011;55635;50.264;11.918;2024-01-30T08:49:43;24.15;;;13.18;;
40945;SDS011;55635;50.264;11.918;2024-01-30T08:52:24;18.98;;;11.95;;
40945;SDS011;55635;50.264;11.918;2024-01-30T08:55:05;20.08;;;11.43;;
40945;SDS011;55635;50.264;11.918;2024-01-30T08:57:47;18.30;;;11.43;;
40945;SDS011;55635;50.264;11.918;2024-01-30T09:00:28;18.20;;;11.32;;
40945;SDS011;55635;50.264;11.918;2024-01-30T09:03:09;20.85;;;11.73;;
40945;SDS011;55635;50.264;11.918;2024-01-30T09:05:50;22.63;;;12.05;;
40945;SDS011;55635;50.264;11.918;2024-01-30T09:08:32;22.50;;;13.25;;
40945;SDS011;55635;50.264;11.918;2024-01-30T09:11:13;19.45;;;11.80;;
40945;SDS011;55635;50.264;11.918;2024-01-30T09:13:55;22.90;;;12.48;;
40945;SDS011;55635;50.264;11.918;2024-01-30T09:16:36;24.13;;;12.82;;
40945;SDS011;55635;50.264;11.918;2024-01-30T09:19:17;20.58;;;12.77;;
40945;SDS011;55635;50.264;11.918;2024-01-30T09:21:58;21.38;;;12.35;;
40945;SDS011;55635;50.264;11.918;2024-01-30T09:24:40;18.75;;;11.93;;
40945;SDS011;55635;50.264;11.918;2024-01-30T09:27:21;18.73;;;11.35;;
40945;SDS011;55635;50.264;11.918;2024-01-30T09:30:02;21.67;;;11.40;;
40945;SDS011;55635;50.264;11.918;2024-01-30T09:32:43;21.52;;;11.40;;
40945;SDS011;55635;50.264;11.918;2024-01-30T09:35:24;19.02;;;11.20;;
40945;SDS011;55635;50.264;11.918;2024-01-30T09:38:05;24.92;;;11.82;;
40945;SDS011;55635;50.264;11.918;2024-01-30T09:40:48;24.25;;;12.15;;
40945;SDS011;55635;50.264;11.918;2024-01-30T09:43:35;19.52;;;11.38;;
40945;SDS011;55635;50.264;11.918;2024-01-30T09:46:17;19.48;;;11.85;;
40945;SDS011;55635;50.264;11.918;2024-01-30T09:49:01;22.02;;;11.65;;
40945;SDS011;55635;50.264;11.918;2024-01-30T09:51:44;20.75;;;12.75;;
40945;SDS011;55635;50.264;11.918;2024-01-30T09:54:26;21.08;;;12.50;;
40945;SDS011;55635;50.264;11.918;2024-01-30T09:57:11;19.17;;;12.23;;
40945;SDS011;55635;50.264;11.918;2024-01-30T09:59:52;21.55;;;12.38;;
40945;SDS011;55635;50.264;11.918;2024-01-30T10:02:34;25.05;;;12.27;;
40945;SDS011;55635;50.264;11.918;2024-01-30T10:05:16;26.27;;;12.73;;
40945;SDS011;55635;50.264;11.918;2024-01-30T10:08:00;24.38;;;12.65;;
40945;SDS011;55635;50.264;11.918;2024-01-30T10:10:41;21.13;;;12.40;;
40945;SDS011;55635;50.264;11.918;2024-01-30T10:13:22;19.85;;;11.90;;
40945;SDS011;55635;50.264;11.918;2024-01-30T10:16:03;22.42;;;11.98;;
40945;SDS011;55635;50.264;11.918;2024-01-30T10:18:46;22.60;;;11.90;;
40945;SDS011;55635;50.264;11.918;2024-01-30T10:21:27;19.83;;;11.55;;
40945;SDS011;55635;50.264;11.918;2024-01-30T10:24:10;20.52;;;11.43;;
40945;SDS011;55635;50.264;11.918;2024-01-30T10:26:53;21.38;;;11.43;;
40945;SDS011;55635;50.264;11.918;2024-01-30T10:29:35;22.27;;;11.52;;
40945;SDS011;55635;50.264;11.918;2024-01-30T10:32:17;16.45;;;11.35;;
40945;SDS011;55635;50.264;11.918;2024-01-30T10:34:59;19.25;;;11.20;;
40945;SDS011;55635;50.264;11.918;2024-01-30T10:37:42;20.02;;;11.20;;
40945;SDS011;55635;50.264;11.918;2024-01-30T10:40:27;19.98;;;10.82;;
40945;SDS011;55635;50.264;11.918;2024-01-30T10:43:09;25.08;;;11.85;;
40945;SDS011;55635;50.264;11.918;2024-01-30T10:45:55;20.13;;;11.68;;
40945;SDS011;55635;50.264;11.918;2024-01-30T10:48:43;23.85;;;12.52;;
40945;SDS011;55635;50.264;11.918;2024-01-30T10:51:29;25.17;;;13.30;;
40945;SDS011;55635;50.264;11.918;2024-01-30T10:54:11;16.50;;;11.18;;
40945;SDS011;55635;50.264;11.918;2024-01-30T10:56:52;17.80;;;11.38;;
40945;SDS011;55635;50.264;11.918;2024-01-30T10:59:33;20.50;;;11.68;;
40945;SDS011;55635;50.264;11.918;2024-01-30T11:02:15;17.05;;;10.80;;
40945;SDS011;55635;50.264;11.918;2024-01-30T11:04:57;23.35;;;12.15;;
40945;SDS011;55635;50.264;11.918;2024-01-30T11:07:39;18.45;;;11.55;;
40945;SDS011;55635;50.264;11.918;2024-01-30T11:10:24;21.48;;;11.82;;
40945;SDS011;55635;50.264;11.918;2024-01-30T11:13:13;19.92;;;11.95;;
40945;SDS011;55635;50.264;11.918;2024-01-30T11:15:54;17.55;;;11.57;;
40945;SDS011;55635;50.264;11.918;2024-01-30T11:18:36;19.15;;;10.88;;
40945;SDS011;55635;50.264;11.918;2024-01-30T11:21:17;16.88;;;11.30;;
40945;SDS011;55635;50.264;11.918;2024-01-30T11:23:58;22.88;;;12.52;;
40945;SDS011;55635;50.264;11.918;2024-01-30T11:26:42;22.80;;;12.32;;
40945;SDS011;55635;50.264;11.918;2024-01-30T11:29:24;21.70;;;11.27;;
40945;SDS011;55635;50.264;11.918;2024-01-30T11:32:07;21.35;;;11.75;;
40945;SDS011;55635;50.264;11.918;2024-01-30T11:34:48;23.90;;;12.63;;
40945;SDS011;55635;50.264;11.918;2024-01-30T11:37:30;18.25;;;11.23;;
40945;SDS011;55635;50.264;11.918;2024-01-30T11:40:11;15.35;;;11.00;;
40945;SDS011;55635;50.264;11.918;2024-01-30T11:42:53;18.13;;;11.75;;
40945;SDS011;55635;50.264;11.918;2024-01-30T11:45:36;20.92;;;12.13;;
40945;SDS011;55635;50.264;11.918;2024-01-30T11:48:17;20.80;;;11.45;;
40945;SDS011;55635;50.264;11.918;2024-01-30T11:50:58;19.65;;;11.88;;
40945;SDS011;55635;50.264;11.918;2024-01-30T11:53:41;24.27;;;13.32;;
40945;SDS011;55635;50.264;11.918;2024-01-30T11:56:23;20.88;;;12.43;;
40945;SDS011;55635;50.264;11.918;2024-01-30T11:59:05;22.98;;;12.85;;
40945;SDS011;55635;50.264;11.918;2024-01-30T12:01:46;21.33;;;12.43;;
40945;SDS011;55635;50.264;11.918;2024-01-30T12:04:28;21.48;;;13.20;;
40945;SDS011;55635;50.264;11.918;2024-01-30T12:07:10;19.77;;;13.13;;
40945;SDS011;55635;50.264;11.918;2024-01-30T12:09:53;25.48;;;12.55;;
40945;SDS011;55635;50.264;11.918;2024-01-30T12:12:36;20.98;;;12.48;;
40945;SDS011;55635;50.264;11.918;2024-01-30T12:15:18;28.08;;;12.52;;
40945;SDS011;55635;50.264;11.918;2024-01-30T12:18:05;20.63;;;12.27;;
40945;SDS011;55635;50.264;11.918;2024-01-30T12:20:56;18.55;;;12.10;;
40945;SDS011;55635;50.264;11.918;2024-01-30T12:23:41;18.08;;;11.27;;
40945;SDS011;55635;50.264;11.918;2024-01-30T12:26:21;26.38;;;11.90;;
40945;SDS011;55635;50.264;11.918;2024-01-30T12:29:03;14.88;;;9.85;;
40945;SDS011;55635;50.264;11.918;2024-01-30T12:31:44;14.05;;;9.68;;
40945;SDS011;55635;50.264;11.918;2024-01-30T12:34:26;15.55;;;10.45;;
40945;SDS011;55635;50.264;11.918;2024-01-30T12:37:07;13.63;;;10.48;;
40945;SDS011;55635;50.264;11.918;2024-01-30T12:39:50;20.60;;;10.45;;
40945;SDS011;55635;50.264;11.918;2024-01-30T12:42:33;15.75;;;10.40;;
40945;SDS011;55635;50.264;11.918;2024-01-30T12:45:15;14.50;;;9.85;;
40945;SDS011;55635;50.264;11.918;2024-01-30T12:47:56;16.42;;;10.43;;
40945;SDS011;55635;50.264;11.918;2024-01-30T12:50:38;13.43;;;9.82;;
40945;SDS011;55635;50.264;11.918;2024-01-30T12:53:19;15.60;;;9.88;;
40945;SDS011;55635;50.264;11.918;2024-01-30T12:56:00;13.60;;;10.05;;
40945;SDS011;55635;50.264;11.918;2024-01-30T12:58:41;12.90;;;9.13;;
40945;SDS011;55635;50.264;11.918;2024-01-30T13:01:23;14.57;;;9.60;;
40945;SDS011;55635;50.264;11.918;2024-01-30T13:04:04;15.75;;;9.02;;
40945;SDS011;55635;50.264;11.918;2024-01-30T13:06:45;11.85;;;8.40;;
40945;SDS011;55635;50.264;11.918;2024-01-30T13:09:26;14.40;;;9.00;;
40945;SDS011;55635;50.264;11.918;2024-01-30T13:12:09;14.90;;;8.85;;
40945;SDS011;55635;50.264;11.918;2024-01-30T13:14:50;16.98;;;9.00;;
40945;SDS011;55635;50.264;11.918;2024-01-30T13:17:31;14.30;;;8.32;;
40945;SDS011;55635;50.264;11.918;2024-01-30T13:20:13;16.85;;;8.68;;
40945;SDS011;55635;50.264;11.918;2024-01-30T13:22:59;11.95;;;8.30;;
40945;SDS011;55635;50.264;11.918;2024-01-30T13:25:40;11.43;;;7.57;;
40945;SDS011;55635;50.264;11.918;2024-01-30T13:28:21;14.93;;;8.45;;
40945;SDS011;55635;50.264;11.918;2024-01-30T13:31:02;14.57;;;8.15;;
40945;SDS011;55635;50.264;11.918;2024-01-30T13:33:45;12.57;;;7.82;;
40945;SDS011;55635;50.264;11.918;2024-01-30T13:36:26;13.10;;;8.05;;
40945;SDS011;55635;50.264;11.918;2024-01-30T13:39:07;10.30;;;7.35;;
40945;SDS011;55635;50.264;11.918;2024-01-30T13:41:50;12.82;;;7.30;;
40945;SDS011;55635;50.264;11.918;2024-01-30T13:44:32;9.20;;;7.13;;
40945;SDS011;55635;50.264;11.918;2024-01-30T13:47:13;10.07;;;6.80;;
40945;SDS011;55635;50.264;11.918;2024-01-30T13:49:54;12.15;;;7.93;;
40945;SDS011;55635;50.264;11.918;2024-01-30T13:52:35;13.43;;;7.78;;
40945;SDS011;55635;50.264;11.918;2024-01-30T13:55:15;11.55;;;8.40;;
40945;SDS011;55635;50.264;11.918;2024-01-30T13:57:56;12.75;;;7.57;;
40945;SDS011;55635;50.264;11.918;2024-01-30T14:00:38;12.13;;;7.70;;
40945;SDS011;55635;50.264;11.918;2024-01-30T14:03:20;13.00;;;8.38;;
40945;SDS011;55635;50.264;11.918;2024-01-30T14:06:01;11.13;;;7.65;;
40945;SDS011;55635;50.264;11.918;2024-01-30T14:08:42;11.20;;;8.02;;
40945;SDS011;55635;50.264;11.918;2024-01-30T14:11:23;14.77;;;8.30;;
40945;SDS011;55635;50.264;11.918;2024-01-30T14:14:04;13.95;;;8.52;;
40945;SDS011;55635;50.264;11.918;2024-01-30T14:16:44;12.07;;;8.20;;
40945;SDS011;55635;50.264;11.918;2024-01-30T14:19:25;13.07;;;8.60;;
40945;SDS011;55635;50.264;11.918;2024-01-30T14:22:06;12.98;;;8.90;;
40945;SDS011;55635;50.264;11.918;2024-01-30T14:24:48;13.52;;;9.00;;
40945;SDS011;55635;50.264;11.918;2024-01-30T14:27:29;10.90;;;8.95;;
40945;SDS011;55635;50.264;11.918;2024-01-30T14:30:11;11.85;;;8.75;;
40945;SDS011;55635;50.264;11.918;2024-01-30T14:32:52;14.20;;;8.65;;
40945;SDS011;55635;50.264;11.918;2024-01-30T14:35:33;20.45;;;9.57;;
40945;SDS011;55635;50.264;11.918;2024-01-30T14:38:14;12.93;;;8.90;;
40945;SDS011;55635;50.264;11.918;2024-01-30T14:40:55;16.98;;;9.38;;
40945;SDS011;55635;50.264;11.918;2024-01-30T14:43:36;13.75;;;8.77;;
40945;SDS011;55635;50.264;11.918;2024-01-30T14:46:17;13.13;;;9.27;;
40945;SDS011;55635;50.264;11.918;2024-01-30T14:48:58;12.35;;;8.43;;
40945;SDS011;55635;50.264;11.918;2024-01-30T14:51:40;11.63;;;8.02;;
40945;SDS011;55635;50.264;11.918;2024-01-30T14:54:21;14.45;;;9.50;;
40945;SDS011;55635;50.264;11.918;2024-01-30T14:57:01;12.02;;;8.13;;
40945;SDS011;55635;50.264;11.918;2024-01-30T14:59:42;17.02;;;8.90;;
40945;SDS011;55635;50.264;11.918;2024-01-30T15:02:23;18.38;;;8.98;;
40945;SDS011;55635;50.264;11.918;2024-01-30T15:05:05;16.63;;;9.43;;
40945;SDS011;55635;50.264;11.918;2024-01-30T15:07:46;11.20;;;8.52;;
40945;SDS011;55635;50.264;11.918;2024-01-30T15:10:27;10.85;;;7.75;;
40945;SDS011;55635;50.264;11.918;2024-01-30T15:13:08;11.55;;;8.18;;
40945;SDS011;55635;50.264;11.918;2024-01-30T15:15:49;10.10;;;8.20;;
40945;SDS011;55635;50.264;11.918;2024-01-30T15:18:30;10.98;;;7.95;;
40945;SDS011;55635;50.264;11.918;2024-01-30T15:21:11;13.27;;;8.40;;
40945;SDS011;55635;50.264;11.918;2024-01-30T15:23:52;12.60;;;8.52;;
40945;SDS011;55635;50.264;11.918;2024-01-30T15:26:33;13.40;;;8.40;;
40945;SDS011;55635;50.264;11.918;2024-01-30T15:29:14;10.32;;;8.32;;
40945;SDS011;55635;50.264;11.918;2024-01-30T15:31:55;13.45;;;7.45;;
40945;SDS011;55635;50.264;11.918;2024-01-30T15:34:36;11.40;;;7.78;;
40945;SDS011;55635;50.264;11.918;2024-01-30T15:37:17;14.07;;;8.45;;